sensor_id;sensor_type;location;lat;lon;timestamp;temperature;humidity
21662;DHT22;10992;48.170;8.596;2023-12-28T00:02:14;0.90;99.90
21662;DHT22;10992;48.170;8.596;2023-12-28T00:04:41;0.90;99.90
21662;DHT22;10992;48.170;8.596;2023-12-28T00:07:08;0.90;99.90
21662;DHT22;10992;48.170;8.596;2023-12-28T00:09:35;1.00;99.90
21662;DHT22;10992;48.170;8.596;2023-12-28T00:12:02;1.10;99.90
21662;DHT22;10992;48.170;8.596;2023-12-28T00:14:29;0.90;99.90
21662;DHT22;10992;48.170;8.596;2023-12-28T00:16:56;0.80;99.90
21662;DHT22;10992;48.170;8.596;2023-12-28T00:19:23;0.80;99.90
21662;DHT22;10992;48.170;8.596;2023-12-28T00:21:50;0.70;99.90
21662;DHT22;10992;48.170;8.596;2023-12-28T00:24:20;0.70;99.90
21662;DHT22;10992;48.170;8.596;2023-12-28T00:26:47;0.70;99.90
21662;DHT22;10992;48.170;8.596;2023-12-28T00:29:14;0.70;99.90
21662;DHT22;10992;48.170;8.596;2023-12-28T00:31:40;0.70;99.90
21662;DHT22;10992;48.170;8.596;2023-12-28T00:34:08;0.90;99.90
21662;DHT22;10992;48.170;8.596;2023-12-28T00:36:35;1.00;99.90
21662;DHT22;10992;48.170;8.596;2023-12-28T00:39:02;1.10;99.90
21662;DHT22;10992;48.170;8.596;2023-12-28T00:41:29;1.10;99.90
21662;DHT22;10992;48.170;8.596;2023-12-28T00:43:56;1.10;99.90
21662;DHT22;10992;48.170;8.596;2023-12-28T00:46:23;1.10;99.90
21662;DHT22;10992;48.170;8.596;2023-12-28T00:48:50;1.20;99.90
21662;DHT22;10992;48.170;8.596;2023-12-28T00:51:17;1.20;99.90
21662;DHT22;10992;48.170;8.596;2023-12-28T00:53:44;1.30;99.90
21662;DHT22;10992;48.170;8.596;2023-12-28T00:56:11;1.30;99.90
21662;DHT22;10992;48.170;8.596;2023-12-28T00:58:41;1.20;99.90
21662;DHT22;10992;48.170;8.596;2023-12-28T01:01:11;1.00;99.90
21662;DHT22;10992;48.170;8.596;2023-12-28T01:03:39;0.90;99.90
21662;DHT22;10992;48.170;8.596;2023-12-28T01:06:07;1.00;99.90
21662;DHT22;10992;48.170;8.596;2023-12-28T01:08:34;1.00;99.90
21662;DHT22;10992;48.170;8.596;2023-12-28T01:11:01;1.00;99.90
21662;DHT22;10992;48.170;8.596;2023-12-28T01:13:29;0.90;99.90
21662;DHT22;10992;48.170;8.596;2023-12-28T01:15:57;0.90;99.90
21662;DHT22;10992;48.170;8.596;2023-12-28T01:18:24;1.00;99.90
21662;DHT22;10992;48.170;8.596;2023-12-28T01:20:52;1.20;99.90
21662;DHT22;10992;48.170;8.596;2023-12-28T01:23:18;1.20;99.90
21662;DHT22;10992;48.170;8.596;2023-12-28T01:25:45;1.10;99.90
21662;DHT22;10992;48.170;8.596;2023-12-28T01:28:13;1.10;99.90
21662;DHT22;10992;48.170;8.596;2023-12-28T01:30:39;1.20;99.90
21662;DHT22;10992;48.170;8.596;2023-12-28T01:33:06;1.30;99.90
21662;DHT22;10992;48.170;8.596;2023-12-28T01:35:33;1.40;99.90
21662;DHT22;10992;48.170;8.596;2023-12-28T01:38:00;1.30;99.90
21662;DHT22;10992;48.170;8.596;2023-12-28T01:40:29;1.40;99.90
21662;DHT22;10992;48.170;8.596;2023-12-28T01:42:55;1.50;99.90
21662;DHT22;10992;48.170;8.596;2023-12-28T01:45:22;1.60;99.90
21662;DHT22;10992;48.170;8.596;2023-12-28T01:47:50;1.50;99.90
21662;DHT22;10992;48.170;8.596;2023-12-28T01:50:19;1.60;99.90
21662;DHT22;10992;48.170;8.596;2023-12-28T01:52:47;1.70;99.90
21662;DHT22;10992;48.170;8.596;2023-12-28T01:55:16;1.80;99.90
21662;DHT22;10992;48.170;8.596;2023-12-28T01:57:43;1.80;99.90
21662;DHT22;10992;48.170;8.596;2023-12-28T02:00:11;2.00;99.90
21662;DHT22;10992;48.170;8.596;2023-12-28T02:02:41;1.80;99.90
21662;DHT22;10992;48.170;8.596;2023-12-28T02:05:11;1.80;99.90
21662;DHT22;10992;48.170;8.596;2023-12-28T02:07:39;1.70;99.90
21662;DHT22;10992;48.170;8.596;2023-12-28T02:10:07;1.60;99.90
21662;DHT22;10992;48.170;8.596;2023-12-28T02:12:34;1.80;99.90
21662;DHT22;10992;48.170;8.596;2023-12-28T02:15:02;1.90;99.90
21662;DHT22;10992;48.170;8.596;2023-12-28T02:17:59;1.90;99.90
21662;DHT22;10992;48.170;8.596;2023-12-28T02:20:29;2.10;99.90
21662;DHT22;10992;48.170;8.596;2023-12-28T02:22:57;2.20;99.90
21662;DHT22;10992;48.170;8.596;2023-12-28T02:25:25;2.20;99.90
21662;DHT22;10992;48.170;8.596;2023-12-28T02:27:52;2.50;99.90
21662;DHT22;10992;48.170;8.596;2023-12-28T02:30:21;2.80;99.90
21662;DHT22;10992;48.170;8.596;2023-12-28T02:33:49;2.70;99.90
21662;DHT22;10992;48.170;8.596;2023-12-28T02:35:54;2.70;99.90
21662;DHT22;10992;48.170;8.596;2023-12-28T02:38:24;2.60;99.90
21662;DHT22;10992;48.170;8.596;2023-12-28T02:40:51;2.50;99.90
21662;DHT22;10992;48.170;8.596;2023-12-28T02:43:19;2.50;99.90
21662;DHT22;10992;48.170;8.596;2023-12-28T02:45:46;2.50;99.90
21662;DHT22;10992;48.170;8.596;2023-12-28T02:48:13;2.40;99.90
21662;DHT22;10992;48.170;8.596;2023-12-28T02:50:40;2.40;99.90
21662;DHT22;10992;48.170;8.596;2023-12-28T02:53:07;2.40;99.90
21662;DHT22;10992;48.170;8.596;2023-12-28T02:55:34;2.50;99.90
21662;DHT22;10992;48.170;8.596;2023-12-28T02:58:01;2.50;99.90
21662;DHT22;10992;48.170;8.596;2023-12-28T03:00:29;2.60;99.90
21662;DHT22;10992;48.170;8.596;2023-12-28T03:02:56;2.70;99.90
21662;DHT22;10992;48.170;8.596;2023-12-28T03:05:23;2.80;99.90
21662;DHT22;10992;48.170;8.596;2023-12-28T03:07:50;3.10;99.90
21662;DHT22;10992;48.170;8.596;2023-12-28T03:10:18;3.10;99.90
21662;DHT22;10992;48.170;8.596;2023-12-28T03:12:44;3.00;99.90
21662;DHT22;10992;48.170;8.596;2023-12-28T03:15:12;3.10;99.90
21662;DHT22;10992;48.170;8.596;2023-12-28T03:17:39;3.70;99.90
21662;DHT22;10992;48.170;8.596;2023-12-28T03:20:07;4.00;99.90
21662;DHT22;10992;48.170;8.596;2023-12-28T03:22:34;4.70;99.90
21662;DHT22;10992;48.170;8.596;2023-12-28T03:25:01;5.10;99.90
21662;DHT22;10992;48.170;8.596;2023-12-28T03:27:30;5.40;99.90
21662;DHT22;10992;48.170;8.596;2023-12-28T03:29:58;5.50;99.90
21662;DHT22;10992;48.170;8.596;2023-12-28T03:32:25;5.60;99.90
21662;DHT22;10992;48.170;8.596;2023-12-28T03:34:51;5.80;99.90
21662;DHT22;10992;48.170;8.596;2023-12-28T03:37:19;6.00;99.90
21662;DHT22;10992;48.170;8.596;2023-12-28T03:39:46;6.10;99.90
21662;DHT22;10992;48.170;8.596;2023-12-28T03:42:13;6.30;99.90
21662;DHT22;10992;48.170;8.596;2023-12-28T03:44:40;6.50;99.90
21662;DHT22;10992;48.170;8.596;2023-12-28T03:47:07;6.60;99.90
21662;DHT22;10992;48.170;8.596;2023-12-28T03:49:34;6.60;99.90
21662;DHT22;10992;48.170;8.596;2023-12-28T03:52:02;6.60;99.90
21662;DHT22;10992;48.170;8.596;2023-12-28T03:54:29;6.60;99.90
21662;DHT22;10992;48.170;8.596;2023-12-28T03:56:56;6.60;99.90
21662;DHT22;10992;48.170;8.596;2023-12-28T03:59:24;6.60;99.90
21662;DHT22;10992;48.170;8.596;2023-12-28T04:01:51;6.60;99.90
21662;DHT22;10992;48.170;8.596;2023-12-28T04:04:17;6.60;99.90
21662;DHT22;10992;48.170;8.596;2023-12-28T04:06:45;6.60;99.90
21662;DHT22;10992;48.170;8.596;2023-12-28T04:09:12;6.40;99.90
21662;DHT22;10992;48.170;8.596;2023-12-28T04:11:39;6.20;99.90
21662;DHT22;10992;48.170;8.596;2023-12-28T04:14:06;6.00;99.90
21662;DHT22;10992;48.170;8.596;2023-12-28T04:16:33;6.00;99.90
21662;DHT22;10992;48.170;8.596;2023-12-28T04:19:00;6.40;99.90
21662;DHT22;10992;48.170;8.596;2023-12-28T04:21:27;6.60;99.90
21662;DHT22;10992;48.170;8.596;2023-12-28T04:23:54;6.70;99.90
21662;DHT22;10992;48.170;8.596;2023-12-28T04:26:21;6.80;99.90
21662;DHT22;10992;48.170;8.596;2023-12-28T04:28:48;6.90;99.90
21662;DHT22;10992;48.170;8.596;2023-12-28T04:31:14;6.90;99.90
21662;DHT22;10992;48.170;8.596;2023-12-28T04:33:43;6.90;99.90
21662;DHT22;10992;48.170;8.596;2023-12-28T04:36:10;6.80;99.90
21662;DHT22;10992;48.170;8.596;2023-12-28T04:38:38;6.90;99.90
21662;DHT22;10992;48.170;8.596;2023-12-28T04:41:06;6.70;99.90
21662;DHT22;10992;48.170;8.596;2023-12-28T04:43:33;6.50;99.90
21662;DHT22;10992;48.170;8.596;2023-12-28T04:46:06;6.40;99.90
21662;DHT22;10992;48.170;8.596;2023-12-28T04:48:34;6.30;99.90
21662;DHT22;10992;48.170;8.596;2023-12-28T04:51:04;6.00;99.90
21662;DHT22;10992;48.170;8.596;2023-12-28T04:53:31;6.10;99.90
21662;DHT22;10992;48.170;8.596;2023-12-28T04:55:58;6.10;99.90
21662;DHT22;10992;48.170;8.596;2023-12-28T04:58:25;6.10;99.90
21662;DHT22;10992;48.170;8.596;2023-12-28T05:00:52;6.20;99.90
21662;DHT22;10992;48.170;8.596;2023-12-28T05:03:19;6.30;99.90
21662;DHT22;10992;48.170;8.596;2023-12-28T05:05:46;6.40;99.90
21662;DHT22;10992;48.170;8.596;2023-12-28T05:08:15;6.60;99.90
21662;DHT22;10992;48.170;8.596;2023-12-28T05:10:42;6.90;99.90
21662;DHT22;10992;48.170;8.596;2023-12-28T05:13:10;7.10;99.90
21662;DHT22;10992;48.170;8.596;2023-12-28T05:15:37;7.40;99.90
21662;DHT22;10992;48.170;8.596;2023-12-28T05:18:05;7.40;99.90
21662;DHT22;10992;48.170;8.596;2023-12-28T05:20:34;7.50;99.90
21662;DHT22;10992;48.170;8.596;2023-12-28T05:23:01;7.50;99.90
21662;DHT22;10992;48.170;8.596;2023-12-28T05:25:27;7.60;99.90
21662;DHT22;10992;48.170;8.596;2023-12-28T05:27:54;7.40;99.90
21662;DHT22;10992;48.170;8.596;2023-12-28T05:30:21;7.40;99.90
21662;DHT22;10992;48.170;8.596;2023-12-28T05:32:48;7.30;99.90
21662;DHT22;10992;48.170;8.596;2023-12-28T05:35:15;7.40;99.90
21662;DHT22;10992;48.170;8.596;2023-12-28T05:37:42;7.50;99.90
21662;DHT22;10992;48.170;8.596;2023-12-28T05:40:09;7.50;99.90
21662;DHT22;10992;48.170;8.596;2023-12-28T05:42:37;7.40;99.90
21662;DHT22;10992;48.170;8.596;2023-12-28T05:45:04;7.30;99.90
21662;DHT22;10992;48.170;8.596;2023-12-28T05:47:31;7.20;99.90
21662;DHT22;10992;48.170;8.596;2023-12-28T05:49:58;7.00;99.90
21662;DHT22;10992;48.170;8.596;2023-12-28T05:52:25;6.90;99.90
21662;DHT22;10992;48.170;8.596;2023-12-28T05:54:52;6.80;99.90
21662;DHT22;10992;48.170;8.596;2023-12-28T05:57:18;6.70;99.90
21662;DHT22;10992;48.170;8.596;2023-12-28T05:59:45;6.70;99.90
21662;DHT22;10992;48.170;8.596;2023-12-28T06:02:12;6.60;99.90
21662;DHT22;10992;48.170;8.596;2023-12-28T06:04:39;6.50;99.90
21662;DHT22;10992;48.170;8.596;2023-12-28T06:07:06;6.40;99.90
21662;DHT22;10992;48.170;8.596;2023-12-28T06:09:33;6.40;99.90
21662;DHT22;10992;48.170;8.596;2023-12-28T06:12:00;6.30;99.90
21662;DHT22;10992;48.170;8.596;2023-12-28T06:14:27;6.20;99.90
21662;DHT22;10992;48.170;8.596;2023-12-28T06:16:54;6.20;99.90
21662;DHT22;10992;48.170;8.596;2023-12-28T06:19:21;6.30;99.90
21662;DHT22;10992;48.170;8.596;2023-12-28T06:21:49;6.20;99.90
21662;DHT22;10992;48.170;8.596;2023-12-28T06:24:16;6.20;99.90
21662;DHT22;10992;48.170;8.596;2023-12-28T06:26:44;6.10;99.90
21662;DHT22;10992;48.170;8.596;2023-12-28T06:29:11;5.90;99.90
21662;DHT22;10992;48.170;8.596;2023-12-28T06:31:38;5.80;99.90
21662;DHT22;10992;48.170;8.596;2023-12-28T06:34:06;5.70;99.90
21662;DHT22;10992;48.170;8.596;2023-12-28T06:36:34;5.70;99.90
21662;DHT22;10992;48.170;8.596;2023-12-28T06:39:01;5.60;99.90
21662;DHT22;10992;48.170;8.596;2023-12-28T06:41:28;5.70;99.90
21662;DHT22;10992;48.170;8.596;2023-12-28T06:43:55;5.60;99.90
21662;DHT22;10992;48.170;8.596;2023-12-28T06:46:22;5.50;99.90
21662;DHT22;10992;48.170;8.596;2023-12-28T06:48:49;5.50;99.90
21662;DHT22;10992;48.170;8.596;2023-12-28T06:51:19;5.40;99.90
21662;DHT22;10992;48.170;8.596;2023-12-28T06:53:48;5.50;99.90
21662;DHT22;10992;48.170;8.596;2023-12-28T06:56:15;5.50;99.90
21662;DHT22;10992;48.170;8.596;2023-12-28T06:58:43;5.60;99.90
21662;DHT22;10992;48.170;8.596;2023-12-28T07:01:10;5.60;99.90
21662;DHT22;10992;48.170;8.596;2023-12-28T07:03:39;5.70;99.90
21662;DHT22;10992;48.170;8.596;2023-12-28T07:06:06;5.70;99.90
21662;DHT22;10992;48.170;8.596;2023-12-28T07:08:33;5.90;99.90
21662;DHT22;10992;48.170;8.596;2023-12-28T07:11:02;6.10;99.90
21662;DHT22;10992;48.170;8.596;2023-12-28T07:13:30;6.10;99.90
21662;DHT22;10992;48.170;8.596;2023-12-28T07:15:57;6.10;99.90
21662;DHT22;10992;48.170;8.596;2023-12-28T07:18:27;6.20;99.90
21662;DHT22;10992;48.170;8.596;2023-12-28T07:20:55;6.10;99.90
21662;DHT22;10992;48.170;8.596;2023-12-28T07:23:22;5.90;99.90
21662;DHT22;10992;48.170;8.596;2023-12-28T07:25:48;5.90;99.90
21662;DHT22;10992;48.170;8.596;2023-12-28T07:28:15;5.90;99.90
21662;DHT22;10992;48.170;8.596;2023-12-28T07:30:42;6.00;99.90
21662;DHT22;10992;48.170;8.596;2023-12-28T07:33:09;6.10;99.90
21662;DHT22;10992;48.170;8.596;2023-12-28T07:35:37;6.10;99.90
21662;DHT22;10992;48.170;8.596;2023-12-28T07:38:03;6.20;99.90
21662;DHT22;10992;48.170;8.596;2023-12-28T07:40:30;6.20;99.90
21662;DHT22;10992;48.170;8.596;2023-12-28T07:42:57;6.30;99.90
21662;DHT22;10992;48.170;8.596;2023-12-28T07:45:24;6.30;99.90
21662;DHT22;10992;48.170;8.596;2023-12-28T07:47:51;6.30;99.90
21662;DHT22;10992;48.170;8.596;2023-12-28T07:50:19;6.30;99.90
21662;DHT22;10992;48.170;8.596;2023-12-28T07:52:47;6.20;99.90
21662;DHT22;10992;48.170;8.596;2023-12-28T07:55:14;6.20;99.90
21662;DHT22;10992;48.170;8.596;2023-12-28T07:57:44;6.10;99.90
21662;DHT22;10992;48.170;8.596;2023-12-28T08:00:11;6.10;99.90
21662;DHT22;10992;48.170;8.596;2023-12-28T08:02:38;6.20;99.90
21662;DHT22;10992;48.170;8.596;2023-12-28T08:05:05;6.10;99.90
21662;DHT22;10992;48.170;8.596;2023-12-28T08:07:32;6.10;99.90
21662;DHT22;10992;48.170;8.596;2023-12-28T08:10:00;6.10;99.90
21662;DHT22;10992;48.170;8.596;2023-12-28T08:12:27;6.10;99.90
21662;DHT22;10992;48.170;8.596;2023-12-28T08:14:55;6.00;99.90
21662;DHT22;10992;48.170;8.596;2023-12-28T08:17:22;6.10;99.90
21662;DHT22;10992;48.170;8.596;2023-12-28T08:19:49;6.10;99.90
21662;DHT22;10992;48.170;8.596;2023-12-28T08:22:16;6.20;99.90
21662;DHT22;10992;48.170;8.596;2023-12-28T08:24:43;6.10;99.90
21662;DHT22;10992;48.170;8.596;2023-12-28T08:27:11;6.10;99.90
21662;DHT22;10992;48.170;8.596;2023-12-28T08:29:39;6.00;99.90
21662;DHT22;10992;48.170;8.596;2023-12-28T08:32:06;6.00;99.90
21662;DHT22;10992;48.170;8.596;2023-12-28T08:34:33;6.00;99.90
21662;DHT22;10992;48.170;8.596;2023-12-28T08:37:00;6.00;99.90
21662;DHT22;10992;48.170;8.596;2023-12-28T08:39:27;5.90;99.90
21662;DHT22;10992;48.170;8.596;2023-12-28T08:41:55;5.90;99.90
21662;DHT22;10992;48.170;8.596;2023-12-28T08:44:22;5.90;99.90
21662;DHT22;10992;48.170;8.596;2023-12-28T08:46:49;5.90;99.90
21662;DHT22;10992;48.170;8.596;2023-12-28T08:49:16;5.90;99.90
21662;DHT22;10992;48.170;8.596;2023-12-28T08:51:43;5.90;99.90
21662;DHT22;10992;48.170;8.596;2023-12-28T08:54:11;5.90;99.90
21662;DHT22;10992;48.170;8.596;2023-12-28T08:56:38;5.90;99.90
21662;DHT22;10992;48.170;8.596;2023-12-28T08:59:05;6.00;99.90
21662;DHT22;10992;48.170;8.596;2023-12-28T09:01:32;6.00;99.90
21662;DHT22;10992;48.170;8.596;2023-12-28T09:03:59;6.00;99.90
21662;DHT22;10992;48.170;8.596;2023-12-28T09:06:27;6.10;99.90
21662;DHT22;10992;48.170;8.596;2023-12-28T09:08:54;6.10;99.90
21662;DHT22;10992;48.170;8.596;2023-12-28T09:11:21;6.20;99.90
21662;DHT22;10992;48.170;8.596;2023-12-28T09:13:48;6.20;99.90
21662;DHT22;10992;48.170;8.596;2023-12-28T09:16:16;6.20;99.90
21662;DHT22;10992;48.170;8.596;2023-12-28T09:18:43;6.20;99.90
21662;DHT22;10992;48.170;8.596;2023-12-28T09:21:10;6.20;99.90
21662;DHT22;10992;48.170;8.596;2023-12-28T09:23:38;6.20;99.90
21662;DHT22;10992;48.170;8.596;2023-12-28T09:26:07;6.20;99.90
21662;DHT22;10992;48.170;8.596;2023-12-28T09:28:34;6.50;99.90
21662;DHT22;10992;48.170;8.596;2023-12-28T09:31:02;6.80;99.90
21662;DHT22;10992;48.170;8.596;2023-12-28T09:33:29;7.20;99.90
21662;DHT22;10992;48.170;8.596;2023-12-28T09:35:57;7.50;99.90
21662;DHT22;10992;48.170;8.596;2023-12-28T09:38:24;7.70;99.90
21662;DHT22;10992;48.170;8.596;2023-12-28T09:40:54;7.80;99.90
21662;DHT22;10992;48.170;8.596;2023-12-28T09:43:30;7.90;99.90
21662;DHT22;10992;48.170;8.596;2023-12-28T09:46:07;8.00;99.90
21662;DHT22;10992;48.170;8.596;2023-12-28T09:48:38;8.10;99.90
21662;DHT22;10992;48.170;8.596;2023-12-28T09:51:10;8.10;99.90
21662;DHT22;10992;48.170;8.596;2023-12-28T09:53:42;8.20;99.90
21662;DHT22;10992;48.170;8.596;2023-12-28T09:56:11;8.30;99.90
21662;DHT22;10992;48.170;8.596;2023-12-28T09:58:39;8.30;99.90
21662;DHT22;10992;48.170;8.596;2023-12-28T10:01:07;8.20;99.90
21662;DHT22;10992;48.170;8.596;2023-12-28T10:03:36;8.20;99.90
21662;DHT22;10992;48.170;8.596;2023-12-28T10:06:03;8.30;99.90
21662;DHT22;10992;48.170;8.596;2023-12-28T10:08:30;8.30;99.90
21662;DHT22;10992;48.170;8.596;2023-12-28T10:10:57;8.40;99.90
21662;DHT22;10992;48.170;8.596;2023-12-28T10:13:26;8.40;99.90
21662;DHT22;10992;48.170;8.596;2023-12-28T10:15:57;8.50;99.90
21662;DHT22;10992;48.170;8.596;2023-12-28T10:18:24;8.30;99.90
21662;DHT22;10992;48.170;8.596;2023-12-28T10:20:52;8.20;99.90
21662;DHT22;10992;48.170;8.596;2023-12-28T10:23:19;8.20;99.90
21662;DHT22;10992;48.170;8.596;2023-12-28T10:25:48;8.20;99.90
21662;DHT22;10992;48.170;8.596;2023-12-28T10:28:19;8.10;99.90
21662;DHT22;10992;48.170;8.596;2023-12-28T10:30:46;8.10;99.90
21662;DHT22;10992;48.170;8.596;2023-12-28T10:33:14;8.10;99.90
21662;DHT22;10992;48.170;8.596;2023-12-28T10:35:44;8.20;99.90
21662;DHT22;10992;48.170;8.596;2023-12-28T10:38:16;8.30;99.90
21662;DHT22;10992;48.170;8.596;2023-12-28T10:40:44;8.20;99.90
21662;DHT22;10992;48.170;8.596;2023-12-28T10:43:16;8.20;99.90
21662;DHT22;10992;48.170;8.596;2023-12-28T10:45:46;8.20;99.90
21662;DHT22;10992;48.170;8.596;2023-12-28T10:48:14;8.20;99.90
21662;DHT22;10992;48.170;8.596;2023-12-28T10:50:42;8.20;99.90
21662;DHT22;10992;48.170;8.596;2023-12-28T10:56:00;8.40;99.90
21662;DHT22;10992;48.170;8.596;2023-12-28T11:01:09;8.50;99.90
21662;DHT22;10992;48.170;8.596;2023-12-28T11:03:39;8.60;99.90
21662;DHT22;10992;48.170;8.596;2023-12-28T11:06:08;8.80;99.90
21662;DHT22;10992;48.170;8.596;2023-12-28T11:08:36;9.10;99.90
21662;DHT22;10992;48.170;8.596;2023-12-28T11:11:04;9.20;99.90
21662;DHT22;10992;48.170;8.596;2023-12-28T11:13:33;9.40;99.90
21662;DHT22;10992;48.170;8.596;2023-12-28T11:16:01;9.50;99.90
21662;DHT22;10992;48.170;8.596;2023-12-28T11:18:29;9.50;99.90
21662;DHT22;10992;48.170;8.596;2023-12-28T11:20:56;9.60;99.90
21662;DHT22;10992;48.170;8.596;2023-12-28T11:23:24;9.80;99.90
21662;DHT22;10992;48.170;8.596;2023-12-28T11:25:52;9.80;99.90
21662;DHT22;10992;48.170;8.596;2023-12-28T11:28:19;9.80;99.90
21662;DHT22;10992;48.170;8.596;2023-12-28T11:30:47;9.80;99.90
21662;DHT22;10992;48.170;8.596;2023-12-28T11:33:14;9.90;99.90
21662;DHT22;10992;48.170;8.596;2023-12-28T11:35:41;9.80;99.90
21662;DHT22;10992;48.170;8.596;2023-12-28T11:38:11;9.70;99.90
21662;DHT22;10992;48.170;8.596;2023-12-28T11:40:42;9.60;99.90
21662;DHT22;10992;48.170;8.596;2023-12-28T11:43:17;9.50;99.90
21662;DHT22;10992;48.170;8.596;2023-12-28T11:45:54;9.50;99.90
21662;DHT22;10992;48.170;8.596;2023-12-28T11:48:26;9.40;99.90
21662;DHT22;10992;48.170;8.596;2023-12-28T11:50:56;9.50;99.90
21662;DHT22;10992;48.170;8.596;2023-12-28T11:53:25;9.60;99.90
21662;DHT22;10992;48.170;8.596;2023-12-28T11:55:58;9.80;99.90
21662;DHT22;10992;48.170;8.596;2023-12-28T11:58:26;10.10;99.90
21662;DHT22;10992;48.170;8.596;2023-12-28T12:00:53;10.30;99.90
21662;DHT22;10992;48.170;8.596;2023-12-28T12:03:20;10.30;99.90
21662;DHT22;10992;48.170;8.596;2023-12-28T12:05:47;10.20;99.90
21662;DHT22;10992;48.170;8.596;2023-12-28T12:08:14;10.10;99.90
21662;DHT22;10992;48.170;8.596;2023-12-28T12:10:41;10.10;99.90
21662;DHT22;10992;48.170;8.596;2023-12-28T12:13:09;10.20;99.90
21662;DHT22;10992;48.170;8.596;2023-12-28T12:15:36;10.10;99.90
21662;DHT22;10992;48.170;8.596;2023-12-28T12:18:04;9.90;99.90
21662;DHT22;10992;48.170;8.596;2023-12-28T12:20:31;9.90;99.90
21662;DHT22;10992;48.170;8.596;2023-12-28T12:22:59;9.70;99.90
21662;DHT22;10992;48.170;8.596;2023-12-28T12:25:28;9.60;99.90
21662;DHT22;10992;48.170;8.596;2023-12-28T12:27:55;9.30;99.90
21662;DHT22;10992;48.170;8.596;2023-12-28T12:30:22;9.30;99.90
21662;DHT22;10992;48.170;8.596;2023-12-28T12:32:49;9.30;99.90
21662;DHT22;10992;48.170;8.596;2023-12-28T12:35:16;9.20;99.90
21662;DHT22;10992;48.170;8.596;2023-12-28T12:37:45;9.10;99.90
21662;DHT22;10992;48.170;8.596;2023-12-28T12:40:13;9.10;99.90
21662;DHT22;10992;48.170;8.596;2023-12-28T12:42:42;9.10;99.90
21662;DHT22;10992;48.170;8.596;2023-12-28T12:45:10;9.00;99.90
21662;DHT22;10992;48.170;8.596;2023-12-28T12:47:39;9.00;99.90
21662;DHT22;10992;48.170;8.596;2023-12-28T12:50:06;9.00;99.90
21662;DHT22;10992;48.170;8.596;2023-12-28T12:52:34;9.00;99.90
21662;DHT22;10992;48.170;8.596;2023-12-28T12:55:01;8.90;99.90
21662;DHT22;10992;48.170;8.596;2023-12-28T12:57:29;8.90;99.90
21662;DHT22;10992;48.170;8.596;2023-12-28T12:59:57;8.90;99.90
21662;DHT22;10992;48.170;8.596;2023-12-28T13:02:24;8.80;99.90
21662;DHT22;10992;48.170;8.596;2023-12-28T13:04:52;8.80;99.90
21662;DHT22;10992;48.170;8.596;2023-12-28T13:07:20;8.80;99.90
21662;DHT22;10992;48.170;8.596;2023-12-28T13:09:47;8.80;99.90
21662;DHT22;10992;48.170;8.596;2023-12-28T13:12:14;8.70;99.90
21662;DHT22;10992;48.170;8.596;2023-12-28T13:14:41;8.70;99.90
21662;DHT22;10992;48.170;8.596;2023-12-28T13:17:11;8.70;99.90
21662;DHT22;10992;48.170;8.596;2023-12-28T13:19:38;8.70;99.90
21662;DHT22;10992;48.170;8.596;2023-12-28T13:22:05;8.60;99.90
21662;DHT22;10992;48.170;8.596;2023-12-28T13:24:32;8.60;99.90
21662;DHT22;10992;48.170;8.596;2023-12-28T13:26:59;8.50;99.90
21662;DHT22;10992;48.170;8.596;2023-12-28T13:29:26;8.50;99.90
21662;DHT22;10992;48.170;8.596;2023-12-28T13:31:53;8.50;99.90
21662;DHT22;10992;48.170;8.596;2023-12-28T13:34:19;8.40;99.90
21662;DHT22;10992;48.170;8.596;2023-12-28T13:36:47;8.40;99.90
21662;DHT22;10992;48.170;8.596;2023-12-28T13:39:14;8.30;99.90
21662;DHT22;10992;48.170;8.596;2023-12-28T13:41:41;8.30;99.90
21662;DHT22;10992;48.170;8.596;2023-12-28T13:44:08;8.30;99.90
21662;DHT22;10992;48.170;8.596;2023-12-28T13:46:39;8.20;99.90
21662;DHT22;10992;48.170;8.596;2023-12-28T13:49:06;8.20;99.90
21662;DHT22;10992;48.170;8.596;2023-12-28T13:51:34;8.10;99.90
21662;DHT22;10992;48.170;8.596;2023-12-28T13:54:01;8.10;99.90
21662;DHT22;10992;48.170;8.596;2023-12-28T13:56:32;8.00;99.90
21662;DHT22;10992;48.170;8.596;2023-12-28T13:58:58;8.00;99.90
21662;DHT22;10992;48.170;8.596;2023-12-28T14:01:25;7.90;99.90
21662;DHT22;10992;48.170;8.596;2023-12-28T14:03:52;7.90;99.90
21662;DHT22;10992;48.170;8.596;2023-12-28T14:06:19;7.80;99.90
21662;DHT22;10992;48.170;8.596;2023-12-28T14:08:47;7.80;99.90
21662;DHT22;10992;48.170;8.596;2023-12-28T14:11:13;7.70;99.90
21662;DHT22;10992;48.170;8.596;2023-12-28T14:13:40;7.70;99.90
21662;DHT22;10992;48.170;8.596;2023-12-28T14:16:07;7.70;99.90
21662;DHT22;10992;48.170;8.596;2023-12-28T14:18:35;7.60;99.90
21662;DHT22;10992;48.170;8.596;2023-12-28T14:21:02;7.70;99.90
21662;DHT22;10992;48.170;8.596;2023-12-28T14:23:30;7.60;99.90
21662;DHT22;10992;48.170;8.596;2023-12-28T14:25:57;7.60;99.90
21662;DHT22;10992;48.170;8.596;2023-12-28T14:28:24;7.60;99.90
21662;DHT22;10992;48.170;8.596;2023-12-28T14:30:53;7.60;99.90
21662;DHT22;10992;48.170;8.596;2023-12-28T14:33:21;7.60;99.90
21662;DHT22;10992;48.170;8.596;2023-12-28T14:35:48;7.60;99.90
21662;DHT22;10992;48.170;8.596;2023-12-28T14:38:16;7.60;99.90
21662;DHT22;10992;48.170;8.596;2023-12-28T14:40:42;7.60;99.90
21662;DHT22;10992;48.170;8.596;2023-12-28T14:43:09;7.60;99.90
21662;DHT22;10992;48.170;8.596;2023-12-28T14:45:36;7.60;99.90
21662;DHT22;10992;48.170;8.596;2023-12-28T14:48:03;7.60;99.90
21662;DHT22;10992;48.170;8.596;2023-12-28T14:50:30;7.60;99.90
21662;DHT22;10992;48.170;8.596;2023-12-28T14:52:57;7.70;99.90
21662;DHT22;10992;48.170;8.596;2023-12-28T14:55:24;7.70;99.90
21662;DHT22;10992;48.170;8.596;2023-12-28T14:57:51;7.70;99.90
21662;DHT22;10992;48.170;8.596;2023-12-28T15:00:18;7.70;99.90
21662;DHT22;10992;48.170;8.596;2023-12-28T15:02:45;7.70;99.90
21662;DHT22;10992;48.170;8.596;2023-12-28T15:05:12;7.70;99.90
21662;DHT22;10992;48.170;8.596;2023-12-28T15:07:40;7.60;99.90
21662;DHT22;10992;48.170;8.596;2023-12-28T15:10:07;7.60;99.90
21662;DHT22;10992;48.170;8.596;2023-12-28T15:12:35;7.60;99.90
21662;DHT22;10992;48.170;8.596;2023-12-28T15:15:02;7.60;99.90
21662;DHT22;10992;48.170;8.596;2023-12-28T15:17:29;7.50;99.90
21662;DHT22;10992;48.170;8.596;2023-12-28T15:19:56;7.40;99.90
21662;DHT22;10992;48.170;8.596;2023-12-28T15:22:24;7.40;99.90
21662;DHT22;10992;48.170;8.596;2023-12-28T15:24:51;7.40;99.90
21662;DHT22;10992;48.170;8.596;2023-12-28T15:27:18;7.40;99.90
21662;DHT22;10992;48.170;8.596;2023-12-28T15:29:44;7.40;99.90
21662;DHT22;10992;48.170;8.596;2023-12-28T15:32:11;7.50;99.90
21662;DHT22;10992;48.170;8.596;2023-12-28T15:34:38;7.40;99.90
21662;DHT22;10992;48.170;8.596;2023-12-28T15:37:06;7.40;99.90
21662;DHT22;10992;48.170;8.596;2023-12-28T15:39:33;7.20;99.90
21662;DHT22;10992;48.170;8.596;2023-12-28T15:42:00;7.10;99.90
21662;DHT22;10992;48.170;8.596;2023-12-28T15:44:27;7.00;99.90
21662;DHT22;10992;48.170;8.596;2023-12-28T15:46:53;6.90;99.90
21662;DHT22;10992;48.170;8.596;2023-12-28T15:49:20;6.90;99.90
21662;DHT22;10992;48.170;8.596;2023-12-28T15:51:47;6.80;99.90
21662;DHT22;10992;48.170;8.596;2023-12-28T15:54:14;6.80;99.90